Time;durP1;ratioP1;P1;durP2;ratioP2;P2;SDS_P1;SDS_P2;PMS_P1;PMS_P2;Temp;Humidity;BMP_temperature;BMP_pressure;BME280_temperature;BME280_humidity;BME280_pressure;Samples;Min_cycle;Max_cycle;Signal;HPM_P1;HPM_P2
2022/04/28 00:00:04;;;;;;;22.98;8.68;;;7.20;99.90;;;;;;5073291;28;20430;-79
2022/04/28 00:02:30;;;;;;;20.63;9.13;;;7.20;99.90;;;;;;5072926;28;20269;-78
2022/04/28 00:04:55;;;;;;;17.00;8.50;;;7.10;99.90;;;;;;5073267;28;20028;-79
2022/04/28 00:07:21;;;;;;;22.65;8.07;;;7.10;99.90;;;;;;5073181;28;20024;-79
2022/04/28 00:09:47;;;;;;;22.70;8.18;;;7.10;99.90;;;;;;5073202;28;20055;-78
2022/04/28 00:12:12;;;;;;;18.27;8.60;;;7.10;99.90;;;;;;5073141;28;20472;-78
2022/04/28 00:14:38;;;;;;;21.73;8.90;;;7.10;99.90;;;;;;5073324;28;20063;-79
2022/04/28 00:17:04;;;;;;;18.70;7.60;;;7.10;99.90;;;;;;5073098;28;20028;-79
2022/04/28 00:19:30;;;;;;;21.10;8.10;;;7.10;99.90;;;;;;5072439;28;20055;-78
2022/04/28 00:21:55;;;;;;;17.10;8.07;;;7.10;99.90;;;;;;5073128;28;20127;-79
2022/04/28 00:24:22;;;;;;;21.92;8.48;;;7.10;99.90;;;;;;5072893;28;20123;-79
2022/04/28 00:26:47;;;;;;;18.80;8.10;;;7.00;99.90;;;;;;5072323;28;20472;-79
2022/04/28 00:29:13;;;;;;;21.38;8.52;;;7.00;99.90;;;;;;5072540;28;20485;-79
2022/04/28 00:31:38;;;;;;;23.05;8.52;;;7.00;99.90;;;;;;5072453;28;20055;-79
2022/04/28 00:34:04;;;;;;;19.23;8.88;;;6.90;99.90;;;;;;5072683;28;20122;-79
2022/04/28 00:36:30;;;;;;;20.63;8.35;;;7.00;99.90;;;;;;5072382;28;20492;-79
2022/04/28 00:38:55;;;;;;;21.30;8.75;;;7.00;99.90;;;;;;5072428;28;20029;-79
2022/04/28 00:41:21;;;;;;;21.50;8.90;;;7.00;99.90;;;;;;5071688;28;20060;-79
2022/04/28 00:43:49;;;;;;;19.15;8.50;;;6.90;99.90;;;;;;5053793;28;20048;-79
2022/04/28 00:46:15;;;;;;;29.80;9.13;;;6.90;99.90;;;;;;5071931;28;20373;-79
2022/04/28 00:51:26;;;;;;;17.20;9.00;;;6.90;99.90;;;;;;5072171;28;20078;-79
2022/04/28 00:53:52;;;;;;;19.48;9.50;;;6.90;99.90;;;;;;5071618;28;20031;-79
2022/04/28 00:56:18;;;;;;;22.73;8.48;;;6.90;99.90;;;;;;5071439;28;20020;-80
2022/04/28 00:58:45;;;;;;;19.98;8.98;;;6.90;99.90;;;;;;5071552;28;20017;-79
2022/04/28 01:01:11;;;;;;;23.08;9.25;;;6.90;99.90;;;;;;5072142;28;20103;-79
2022/04/28 01:03:37;;;;;;;20.42;8.45;;;6.90;99.90;;;;;;5072521;28;20347;-79
2022/04/28 01:06:02;;;;;;;18.50;9.00;;;6.90;99.90;;;;;;5072276;28;20465;-80
2022/04/28 01:08:28;;;;;;;22.35;9.10;;;6.90;99.90;;;;;;5071675;28;20024;-79
2022/04/28 01:10:55;;;;;;;17.88;8.38;;;6.90;99.90;;;;;;5071570;28;20473;-79
2022/04/28 01:13:20;;;;;;;18.90;9.23;;;6.90;99.90;;;;;;5071588;28;20079;-79
2022/04/28 01:15:48;;;;;;;21.02;9.23;;;6.80;99.90;;;;;;5071445;28;20036;-79
2022/04/28 01:18:15;;;;;;;21.30;9.65;;;6.80;99.90;;;;;;5071600;28;20025;-79
2022/04/28 01:20:42;;;;;;;19.58;9.60;;;6.80;99.90;;;;;;5071093;28;20094;-79
2022/04/28 01:23:08;;;;;;;19.33;9.35;;;6.80;99.90;;;;;;5071682;28;20111;-79
2022/04/28 01:25:34;;;;;;;25.38;9.35;;;6.80;99.90;;;;;;5053117;28;20029;-79
2022/04/28 01:28:00;;;;;;;19.77;9.18;;;6.80;99.90;;;;;;5070724;28;20099;-79
2022/04/28 01:30:25;;;;;;;25.27;10.05;;;6.80;99.90;;;;;;5071042;28;20504;-79
2022/04/28 01:32:52;;;;;;;20.63;9.73;;;6.80;99.90;;;;;;5071155;28;20032;-79
2022/04/28 01:35:18;;;;;;;20.63;9.45;;;6.80;99.90;;;;;;5071085;28;20070;-79
2022/04/28 01:37:44;;;;;;;22.60;9.50;;;6.70;99.90;;;;;;5071422;28;20520;-79
2022/04/28 01:40:13;;;;;;;22.27;9.52;;;6.80;99.90;;;;;;5071157;28;20066;-79
2022/04/28 01:42:43;;;;;;;19.40;9.43;;;6.70;99.90;;;;;;5071555;28;20028;-79
2022/04/28 01:45:09;;;;;;;21.95;9.27;;;6.70;99.90;;;;;;5071203;28;20056;-79
2022/04/28 01:47:36;;;;;;;20.65;9.50;;;6.70;99.90;;;;;;5071313;28;20028;-79
2022/04/28 01:50:03;;;;;;;21.80;9.65;;;6.70;99.90;;;;;;5071970;28;20036;-79
2022/04/28 01:55:13;;;;;;;19.10;9.73;;;6.70;99.90;;;;;;5075202;28;20051;-79
2022/04/28 01:57:39;;;;;;;15.70;8.88;;;6.70;99.90;;;;;;5075773;28;20492;-79
2022/04/28 02:00:06;;;;;;;23.05;9.90;;;6.70;99.90;;;;;;5075099;28;20025;-79
2022/04/28 02:02:32;;;;;;;18.98;9.48;;;6.70;99.90;;;;;;5056512;28;20107;-79
2022/04/28 02:04:59;;;;;;;20.52;9.32;;;6.60;99.90;;;;;;5075106;28;20021;-80
2022/04/28 02:07:28;;;;;;;25.10;9.38;;;6.60;99.90;;;;;;5075094;28;20031;-79
2022/04/28 02:09:54;;;;;;;22.10;9.27;;;6.60;99.90;;;;;;5074858;28;20055;-79
2022/04/28 02:12:20;;;;;;;18.45;9.38;;;6.70;99.90;;;;;;5074397;28;20478;-79
2022/04/28 02:14:46;;;;;;;22.67;9.85;;;6.60;99.90;;;;;;5074496;28;20111;-79
2022/04/28 02:17:18;;;;;;;20.40;9.57;;;6.60;99.90;;;;;;5074592;28;20025;-79
2022/04/28 02:19:44;;;;;;;22.75;9.73;;;6.60;99.90;;;;;;5074243;28;20087;-79
2022/04/28 02:22:09;;;;;;;20.25;9.52;;;6.60;99.90;;;;;;5074013;28;20281;-78
2022/04/28 02:24:35;;;;;;;18.67;9.05;;;6.60;99.90;;;;;;5074184;28;20027;-79
2022/04/28 02:27:01;;;;;;;15.43;8.98;;;6.60;99.90;;;;;;5074318;28;20040;-79
2022/04/28 02:29:26;;;;;;;20.40;9.50;;;6.60;99.90;;;;;;5074240;28;20032;-79
2022/04/28 02:31:52;;;;;;;16.90;8.55;;;6.60;99.90;;;;;;5074418;28;20024;-79
2022/04/28 02:34:17;;;;;;;16.55;8.60;;;6.60;99.90;;;;;;5074302;28;20107;-79
2022/04/28 02:36:43;;;;;;;21.63;8.90;;;6.60;99.90;;;;;;5076651;28;20020;-79
2022/04/28 02:39:09;;;;;;;19.50;8.80;;;6.50;99.90;;;;;;5079193;28;20107;-79
2022/04/28 02:41:36;;;;;;;15.05;8.77;;;6.60;99.90;;;;;;5079730;28;20105;-80
2022/04/28 02:44:01;;;;;;;24.95;9.50;;;6.50;99.90;;;;;;5078013;28;20032;-79
2022/04/28 02:46:28;;;;;;;20.70;9.25;;;6.50;99.90;;;;;;5077579;28;20032;-78
2022/04/28 02:48:54;;;;;;;16.98;9.20;;;6.50;99.90;;;;;;5060313;28;20028;-79
2022/04/28 02:51:20;;;;;;;24.13;10.10;;;6.50;99.90;;;;;;5076107;28;20526;-79
2022/04/28 02:53:45;;;;;;;20.95;9.05;;;6.50;99.90;;;;;;5073797;28;20388;-79
2022/04/28 02:56:11;;;;;;;22.42;9.18;;;6.50;99.90;;;;;;5071995;28;20078;-79
2022/04/28 02:58:37;;;;;;;22.38;9.57;;;6.50;99.90;;;;;;5073994;28;20370;-79
2022/04/28 03:01:03;;;;;;;19.58;9.63;;;6.50;99.90;;;;;;5073573;28;20036;-79
2022/04/28 03:03:30;;;;;;;18.30;9.82;;;6.50;99.90;;;;;;5073371;28;20017;-79
2022/04/28 03:11:24;;;;;;;24.02;10.93;;;6.50;99.90;;;;;;5072957;28;20177;-79
2022/04/28 03:13:50;;;;;;;23.20;9.55;;;6.50;99.90;;;;;;5054690;28;20020;-79
2022/04/28 03:16:16;;;;;;;22.23;9.93;;;6.50;99.90;;;;;;5072608;28;20028;-79
2022/04/28 03:18:44;;;;;;;22.77;11.02;;;6.40;99.90;;;;;;5072880;28;20384;-79
2022/04/28 03:21:10;;;;;;;19.17;9.60;;;6.40;99.90;;;;;;5072818;28;20060;-79
2022/04/28 03:23:36;;;;;;;18.52;9.63;;;6.40;99.90;;;;;;5072728;28;20020;-79
2022/04/28 03:26:03;;;;;;;20.80;10.45;;;6.40;99.90;;;;;;5072410;28;20534;-79
2022/04/28 03:28:34;;;;;;;20.20;10.48;;;6.40;99.90;;;;;;5072591;28;20036;-79
2022/04/28 03:30:59;;;;;;;23.83;10.43;;;6.40;99.90;;;;;;5055279;28;20045;-79
2022/04/28 03:33:25;;;;;;;20.85;10.70;;;6.40;99.90;;;;;;5072355;28;20024;-79
2022/04/28 03:35:51;;;;;;;24.08;10.93;;;6.30;99.90;;;;;;5072514;28;20028;-79
2022/04/28 03:38:16;;;;;;;20.27;10.52;;;6.40;99.90;;;;;;5072289;28;20032;-79
2022/04/28 03:40:42;;;;;;;22.27;10.60;;;6.30;99.90;;;;;;5072288;28;20029;-79
2022/04/28 03:43:12;;;;;;;18.92;10.68;;;6.30;99.90;;;;;;5072001;28;20020;-79
2022/04/28 03:45:38;;;;;;;21.98;10.40;;;6.30;99.90;;;;;;5054321;28;20032;-79
2022/04/28 03:48:04;;;;;;;23.83;11.13;;;6.20;99.90;;;;;;5071817;28;20504;-79
2022/04/28 03:50:31;;;;;;;21.17;10.50;;;6.20;99.90;;;;;;5054330;28;20032;-79
2022/04/28 03:52:57;;;;;;;19.02;10.38;;;6.10;99.90;;;;;;5072003;28;20385;-79
2022/04/28 03:55:23;;;;;;;19.00;10.98;;;6.10;99.90;;;;;;5072209;28;20044;-79
2022/04/28 03:57:49;;;;;;;22.83;11.50;;;6.10;99.90;;;;;;5071728;28;20427;-79
2022/04/28 04:00:15;;;;;;;22.60;11.82;;;6.10;99.90;;;;;;5071675;28;20097;-79
2022/04/28 04:02:40;;;;;;;28.02;12.07;;;6.10;99.90;;;;;;5071961;28;20032;-79
2022/04/28 04:05:07;;;;;;;18.02;10.43;;;6.10;99.90;;;;;;5071689;28;20016;-79
2022/04/28 04:07:33;;;;;;;22.38;11.23;;;6.10;99.90;;;;;;5072123;28;20027;-79
2022/04/28 04:09:59;;;;;;;23.45;11.80;;;6.10;99.90;;;;;;5071640;28;20040;-79
2022/04/28 04:12:25;;;;;;;21.95;11.48;;;6.10;99.90;;;;;;5071509;28;20484;-79
2022/04/28 04:14:52;;;;;;;24.92;11.82;;;6.10;99.90;;;;;;5071524;28;20027;-79
2022/04/28 04:17:18;;;;;;;22.50;10.93;;;6.10;99.90;;;;;;5071511;28;20031;-80
2022/04/28 04:19:44;;;;;;;24.83;11.02;;;6.10;99.90;;;;;;5071351;28;20064;-79
2022/04/28 04:22:10;;;;;;;23.50;11.20;;;6.00;99.90;;;;;;5071310;28;20028;-80
2022/04/28 04:24:35;;;;;;;24.13;12.10;;;6.00;99.90;;;;;;5072011;28;20029;-80
2022/04/28 04:27:02;;;;;;;22.17;11.18;;;6.00;99.90;;;;;;5071196;28;20190;-80
2022/04/28 04:29:27;;;;;;;22.73;11.32;;;6.00;99.90;;;;;;5071058;28;20066;-79
2022/04/28 04:34:37;;;;;;;24.85;11.35;;;6.00;99.90;;;;;;5071305;28;20166;-79
2022/04/28 04:37:03;;;;;;;23.30;11.75;;;6.00;99.90;;;;;;5071251;28;20447;-80
2022/04/28 04:39:29;;;;;;;24.88;11.95;;;6.00;99.90;;;;;;5071017;28;20104;-80
2022/04/28 04:41:54;;;;;;;23.73;11.75;;;6.00;99.90;;;;;;5070987;28;20078;-79
2022/04/28 04:44:20;;;;;;;27.48;13.20;;;6.00;99.90;;;;;;5071196;28;20070;-80
2022/04/28 04:46:45;;;;;;;25.55;11.88;;;6.00;99.90;;;;;;5071300;28;20036;-80
2022/04/28 04:49:11;;;;;;;28.45;12.07;;;6.10;99.90;;;;;;5070820;28;20025;-79
2022/04/28 04:51:37;;;;;;;23.20;11.73;;;6.00;99.90;;;;;;5070776;28;20033;-80
2022/04/28 04:54:03;;;;;;;25.88;12.38;;;6.10;99.90;;;;;;5070366;28;20396;-79
2022/04/28 04:56:28;;;;;;;24.67;11.80;;;6.10;99.90;;;;;;5070772;28;20027;-80
2022/04/28 04:58:54;;;;;;;29.70;12.30;;;6.10;99.90;;;;;;5065942;28;20033;-77
2022/04/28 05:01:19;;;;;;;21.98;12.48;;;6.10;99.90;;;;;;5069457;28;20028;-77
2022/04/28 05:03:45;;;;;;;24.17;12.57;;;6.10;99.90;;;;;;5063727;28;20029;-78
2022/04/28 05:06:10;;;;;;;24.27;12.63;;;6.10;99.90;;;;;;5065770;28;20017;-77
2022/04/28 05:08:36;;;;;;;26.98;12.30;;;6.20;99.90;;;;;;5064982;28;20021;-77
2022/04/28 05:11:01;;;;;;;24.08;12.18;;;6.10;99.90;;;;;;5067210;28;20385;-78
2022/04/28 05:13:27;;;;;;;27.75;12.05;;;6.10;99.90;;;;;;5070869;28;20095;-77
2022/04/28 05:15:53;;;;;;;23.80;12.98;;;6.20;99.90;;;;;;5070501;28;20021;-78
2022/04/28 05:18:18;;;;;;;23.83;12.32;;;6.20;99.90;;;;;;5051890;28;20063;-78
2022/04/28 05:20:44;;;;;;;27.10;13.07;;;6.20;99.90;;;;;;5068774;28;20087;-77
2022/04/28 05:23:09;;;;;;;27.10;12.88;;;6.20;99.90;;;;;;5068748;28;20016;-78
2022/04/28 05:25:36;;;;;;;24.10;13.00;;;6.20;99.90;;;;;;5061318;28;20036;-77
2022/04/28 05:28:02;;;;;;;28.38;13.77;;;6.30;99.90;;;;;;5063945;28;20337;-78
2022/04/28 05:30:27;;;;;;;24.73;13.52;;;6.30;99.90;;;;;;5073009;28;20039;-78
2022/04/28 05:32:53;;;;;;;26.17;12.77;;;6.30;99.90;;;;;;5073628;28;20146;-77
2022/04/28 05:35:18;;;;;;;25.42;13.38;;;6.30;99.90;;;;;;5050104;28;20017;-78
2022/04/28 05:37:44;;;;;;;25.52;12.35;;;6.40;99.90;;;;;;5072619;28;20020;-78
2022/04/28 05:40:12;;;;;;;24.23;12.65;;;6.40;99.90;;;;;;5069962;28;20039;-79
2022/04/28 05:48:11;;;;;;;26.70;13.05;;;6.60;99.90;;;;;;5074079;28;20043;-76
2022/04/28 05:50:38;;;;;;;26.27;12.40;;;6.60;99.90;;;;;;5071265;28;20118;-77
2022/04/28 05:53:04;;;;;;;26.77;12.80;;;6.70;99.90;;;;;;5059567;28;20025;-77
2022/04/28 05:55:29;;;;;;;22.88;12.38;;;6.70;99.90;;;;;;5070057;28;20020;-77
2022/04/28 05:57:58;;;;;;;26.58;12.40;;;6.70;99.90;;;;;;5053634;28;20107;-77
2022/04/28 06:00:25;;;;;;;24.48;12.60;;;6.80;99.90;;;;;;5066238;28;20045;-75
2022/04/28 06:02:50;;;;;;;23.48;13.20;;;6.80;99.90;;;;;;5057795;28;20049;-76
2022/04/28 06:05:16;;;;;;;22.50;12.40;;;6.90;99.90;;;;;;5071387;28;20063;-76
2022/04/28 06:07:41;;;;;;;24.83;12.70;;;6.90;99.90;;;;;;5073861;28;20476;-77
2022/04/28 06:10:07;;;;;;;26.73;12.65;;;6.90;99.90;;;;;;5062623;28;20544;-78
2022/04/28 06:12:33;;;;;;;24.00;12.02;;;7.00;99.90;;;;;;5073553;28;20025;-76
2022/04/28 06:14:58;;;;;;;26.95;12.77;;;7.00;99.90;;;;;;5065074;28;20029;-76
2022/04/28 06:17:24;;;;;;;27.98;13.07;;;7.10;99.90;;;;;;5065688;28;20029;-76
2022/04/28 06:19:49;;;;;;;24.77;13.57;;;7.10;99.90;;;;;;5049043;28;20053;-76
2022/04/28 06:22:15;;;;;;;26.80;13.63;;;7.10;99.90;;;;;;5070686;28;20106;-76
2022/04/28 06:24:41;;;;;;;22.25;12.48;;;7.20;99.90;;;;;;5070425;28;20020;-76
2022/04/28 06:27:06;;;;;;;29.30;12.48;;;7.20;99.90;;;;;;5072392;28;20380;-75
2022/04/28 06:29:32;;;;;;;28.23;11.43;;;7.30;99.90;;;;;;5071429;28;20520;-75
2022/04/28 06:31:57;;;;;;;26.13;12.48;;;7.30;99.90;;;;;;5071786;28;20106;-74
2022/04/28 06:34:23;;;;;;;27.92;12.60;;;7.40;99.90;;;;;;5072476;28;20021;-75
2022/04/28 06:36:48;;;;;;;23.73;11.20;;;7.40;99.90;;;;;;5054508;28;20397;-75
2022/04/28 06:39:14;;;;;;;24.88;12.73;;;7.50;99.90;;;;;;5052833;28;20087;-75
2022/04/28 06:41:40;;;;;;;27.60;12.35;;;7.60;99.90;;;;;;5052046;28;20025;-75
2022/04/28 06:44:05;;;;;;;29.13;11.77;;;7.60;99.90;;;;;;5035376;28;20040;-75
2022/04/28 06:46:31;;;;;;;24.88;11.57;;;7.60;99.90;;;;;;5052876;28;20029;-75
2022/04/28 06:48:57;;;;;;;25.30;11.07;;;7.70;99.90;;;;;;5053042;28;20059;-75
2022/04/28 06:51:23;;;;;;;24.42;11.25;;;7.80;99.90;;;;;;5052730;28;20025;-75
2022/04/28 06:53:49;;;;;;;26.48;11.52;;;7.90;99.90;;;;;;5063572;28;20365;-75
2022/04/28 06:56:15;;;;;;;27.30;11.05;;;8.00;99.90;;;;;;5070741;28;20043;-75
2022/04/28 06:58:40;;;;;;;24.23;10.18;;;8.10;99.90;;;;;;5071181;28;20029;-75
2022/04/28 07:01:06;;;;;;;21.48;10.25;;;8.10;99.90;;;;;;5070482;28;20529;-75
2022/04/28 07:03:32;;;;;;;21.63;9.75;;;8.20;99.90;;;;;;5071069;28;20024;-74
2022/04/28 07:05:58;;;;;;;20.77;8.80;;;8.30;99.90;;;;;;5071251;28;20130;-75
2022/04/28 07:08:23;;;;;;;18.92;8.52;;;8.40;99.90;;;;;;5071068;28;20715;-74
2022/04/28 07:10:49;;;;;;;18.00;8.00;;;8.60;99.90;;;;;;5072535;28;20055;-75
2022/04/28 07:13:16;;;;;;;17.75;7.97;;;8.70;99.90;;;;;;5072305;28;20021;-75
2022/04/28 07:15:41;;;;;;;18.00;8.35;;;8.80;99.90;;;;;;5071968;28;20016;-76
2022/04/28 07:18:07;;;;;;;17.90;8.32;;;8.90;99.90;;;;;;5071960;28;20035;-75
2022/04/28 07:20:34;;;;;;;17.85;7.53;;;9.00;99.90;;;;;;5071752;28;20045;-76
2022/04/28 07:23:00;;;;;;;16.98;7.82;;;9.20;99.90;;;;;;5053953;28;20545;-75
2022/04/28 07:25:26;;;;;;;14.68;7.50;;;9.30;99.90;;;;;;5072436;28;20480;-75
2022/04/28 07:27:53;;;;;;;14.38;7.40;;;9.40;99.90;;;;;;5073926;28;20028;-75
2022/04/28 07:30:18;;;;;;;18.50;6.90;;;9.50;99.90;;;;;;5071830;28;20028;-75
2022/04/28 07:32:44;;;;;;;18.98;6.43;;;9.70;99.90;;;;;;5054566;28;20408;-75
2022/04/28 07:35:10;;;;;;;13.55;6.60;;;9.80;99.90;;;;;;5071911;28;20025;-75
2022/04/28 07:37:35;;;;;;;12.23;6.03;;;9.90;99.90;;;;;;5071473;28;20078;-75
2022/04/28 07:40:01;;;;;;;16.42;6.38;;;10.00;99.90;;;;;;5071676;28;20046;-75
2022/04/28 07:42:26;;;;;;;15.98;6.03;;;10.10;99.90;;;;;;5053341;28;20054;-75
2022/04/28 07:44:52;;;;;;;19.10;6.07;;;10.30;99.90;;;;;;5071421;28;20029;-75
2022/04/28 07:47:18;;;;;;;18.20;6.70;;;10.40;99.90;;;;;;5071195;28;20032;-75
2022/04/28 07:49:44;;;;;;;16.92;6.30;;;10.50;99.90;;;;;;5070191;28;20032;-76
2022/04/28 07:52:09;;;;;;;14.60;6.00;;;10.70;99.90;;;;;;5070496;28;20544;-75
2022/04/28 07:54:35;;;;;;;12.85;5.15;;;10.80;99.90;;;;;;5067816;28;20040;-74
2022/04/28 07:57:01;;;;;;;18.55;6.13;;;10.90;99.90;;;;;;5070477;28;20568;-74
2022/04/28 07:59:26;;;;;;;11.20;5.72;;;11.00;99.90;;;;;;5072395;28;20032;-75
2022/04/28 08:01:52;;;;;;;13.77;5.60;;;11.10;99.90;;;;;;5071496;28;20059;-77
2022/04/28 08:04:18;;;;;;;15.18;5.43;;;11.20;99.90;;;;;;5071988;28;20098;-74
2022/04/28 08:06:43;;;;;;;11.90;5.20;;;11.30;99.90;;;;;;5052866;28;20464;-75
2022/04/28 08:09:09;;;;;;;12.90;5.82;;;11.50;99.90;;;;;;5070618;28;20055;-74
2022/04/28 08:11:34;;;;;;;16.05;5.40;;;11.50;99.90;;;;;;5071021;28;20396;-74
2022/04/28 08:14:00;;;;;;;12.05;5.15;;;11.60;99.90;;;;;;5052939;28;20077;-73
2022/04/28 08:16:26;;;;;;;10.05;4.65;;;11.90;99.90;;;;;;5070648;28;20541;-74
2022/04/28 08:18:52;;;;;;;13.82;4.90;;;12.00;99.90;;;;;;5070485;28;20033;-74
2022/04/28 08:21:18;;;;;;;11.52;4.50;;;12.20;99.90;;;;;;5070940;28;20016;-75
2022/04/28 08:23:43;;;;;;;9.40;4.32;;;12.40;99.90;;;;;;5071172;28;20082;-76
2022/04/28 08:26:09;;;;;;;13.68;4.93;;;12.50;99.90;;;;;;5052623;28;20021;-76
2022/04/28 08:28:34;;;;;;;7.10;4.20;;;12.60;99.90;;;;;;5070461;28;20032;-77
2022/04/28 08:31:00;;;;;;;11.27;4.57;;;12.70;99.90;;;;;;5052786;28;20025;-76
2022/04/28 08:33:26;;;;;;;11.88;4.53;;;12.80;99.90;;;;;;5070851;28;20025;-76
2022/04/28 08:35:52;;;;;;;15.35;4.85;;;12.90;99.90;;;;;;5070881;28;20074;-76
2022/04/28 08:38:17;;;;;;;14.07;4.85;;;13.00;99.90;;;;;;5070288;28;20128;-75
2022/04/28 08:40:44;;;;;;;12.00;4.78;;;13.00;99.90;;;;;;5070402;28;20119;-75
2022/04/28 08:43:13;;;;;;;12.60;4.40;;;13.10;99.90;;;;;;5070392;28;20079;-74
2022/04/28 08:46:50;;;;;;;9.27;4.50;;;13.20;99.90;;;;;;5070338;28;20028;-75
2022/04/28 08:48:29;;;;;;;10.38;4.68;;;13.30;99.90;;;;;;5070154;28;20549;-76
2022/04/28 08:50:56;;;;;;;13.48;4.80;;;13.30;99.90;;;;;;5070523;28;20075;-77
2022/04/28 08:53:21;;;;;;;12.00;5.07;;;13.40;99.90;;;;;;5070390;28;20054;-76
2022/04/28 08:55:47;;;;;;;11.73;4.80;;;13.50;99.90;;;;;;5071777;28;20024;-77
2022/04/28 08:58:13;;;;;;;12.35;5.15;;;13.70;99.90;;;;;;5070226;28;20028;-76
2022/04/28 09:00:38;;;;;;;13.55;5.35;;;13.80;99.30;;;;;;5070586;28;20028;-77
2022/04/28 09:03:04;;;;;;;17.67;5.68;;;13.90;99.70;;;;;;5070382;28;20056;-76
2022/04/28 09:05:32;;;;;;;12.35;5.25;;;14.00;98.80;;;;;;5056309;28;20021;-76
2022/04/28 09:07:58;;;;;;;13.48;5.80;;;14.10;98.50;;;;;;5074201;28;20035;-76
2022/04/28 09:10:27;;;;;;;13.23;5.25;;;14.10;97.30;;;;;;5074205;28;20020;-76
2022/04/28 09:15:52;;;;;;;15.27;6.18;;;14.20;97.50;;;;;;5074414;28;20031;-76
2022/04/28 09:18:19;;;;;;;11.45;5.22;;;14.30;97.40;;;;;;5074196;28;20028;-76
2022/04/28 09:20:46;;;;;;;10.85;5.35;;;14.50;97.00;;;;;;5073524;28;20083;-74
2022/04/28 09:23:12;;;;;;;14.32;6.15;;;14.70;96.40;;;;;;5074402;28;20115;-75
2022/04/28 09:25:39;;;;;;;16.58;6.15;;;14.70;96.00;;;;;;5073959;28;20483;-76
2022/04/28 09:28:07;;;;;;;14.30;5.40;;;14.60;94.70;;;;;;5055846;28;20407;-76
2022/04/28 09:30:45;;;;;;;13.77;5.13;;;14.50;94.40;;;;;;5056207;28;20028;-75
2022/04/28 09:33:12;;;;;;;13.23;5.32;;;14.30;94.40;;;;;;5073574;28;20013;-77
2022/04/28 09:35:49;;;;;;;13.13;5.00;;;14.30;94.30;;;;;;5073713;28;20028;-76
2022/04/28 09:38:14;;;;;;;9.30;4.88;;;14.30;94.40;;;;;;5073986;28;20032;-77
2022/04/28 09:43:29;;;;;;;13.82;4.90;;;14.60;93.80;;;;;;5073676;28;20026;-75
2022/04/28 09:45:56;;;;;;;14.18;5.00;;;14.60;92.90;;;;;;5055143;28;20067;-76
2022/04/28 09:48:24;;;;;;;17.45;5.20;;;14.60;92.90;;;;;;5073365;28;20036;-76
2022/04/28 09:50:50;;;;;;;13.18;5.32;;;14.60;92.10;;;;;;5073601;28;20016;-76
2022/04/28 09:53:19;;;;;;;12.60;5.00;;;14.70;92.20;;;;;;5073313;28;20025;-75
2022/04/28 09:55:45;;;;;;;10.05;4.75;;;14.70;92.10;;;;;;5073706;28;20369;-76
2022/04/28 09:58:13;;;;;;;13.75;5.20;;;14.70;90.60;;;;;;5073340;28;20023;-76
2022/04/28 10:00:39;;;;;;;8.57;4.53;;;14.70;91.10;;;;;;5073355;28;20082;-77
2022/04/28 10:03:07;;;;;;;12.32;5.03;;;14.80;91.10;;;;;;5073146;28;20025;-76
2022/04/28 10:05:34;;;;;;;11.52;5.03;;;14.90;91.00;;;;;;5073470;28;20032;-76
2022/04/28 10:08:01;;;;;;;14.27;5.90;;;15.00;90.40;;;;;;5073181;28;20044;-76
2022/04/28 10:10:27;;;;;;;9.90;5.22;;;15.20;90.10;;;;;;5072984;28;20036;-76
2022/04/28 10:12:59;;;;;;;11.05;5.07;;;15.30;89.40;;;;;;5073060;28;20102;-75
2022/04/28 10:15:24;;;;;;;15.90;5.60;;;15.40;88.20;;;;;;5055101;28;20064;-76
2022/04/28 10:18:04;;;;;;;13.90;5.85;;;15.50;87.20;;;;;;5055223;28;20417;-76
2022/04/28 10:20:45;;;;;;;18.00;5.85;;;15.60;85.60;;;;;;5054893;28;20544;-76
2022/04/28 10:23:14;;;;;;;14.20;5.78;;;15.60;85.10;;;;;;5072903;28;20032;-76
2022/04/28 10:34:14;;;;;;;13.48;5.95;;;15.70;83.50;;;;;;5058093;28;20105;-77
2022/04/28 10:36:59;;;;;;;13.57;6.25;;;15.90;82.80;;;;;;5072653;28;20029;-76
2022/04/28 10:39:39;;;;;;;11.38;5.53;;;15.70;80.20;;;;;;5072856;28;20020;-75
2022/04/28 10:42:13;;;;;;;13.63;6.10;;;15.60;80.20;;;;;;5072331;28;20043;-75
2022/04/28 10:44:54;;;;;;;12.52;6.25;;;15.40;81.40;;;;;;5072688;28;20021;-75
2022/04/28 10:47:35;;;;;;;11.85;6.18;;;15.40;82.70;;;;;;5054559;28;20119;-75
2022/04/28 10:50:02;;;;;;;11.68;5.68;;;15.50;83.20;;;;;;5072357;28;20022;-76
2022/04/28 10:52:27;;;;;;;12.38;5.53;;;15.60;82.70;;;;;;5072337;28;20020;-76
2022/04/28 10:54:58;;;;;;;12.50;5.75;;;15.70;82.50;;;;;;5072422;28;20021;-76
2022/04/28 10:57:32;;;;;;;10.95;5.35;;;15.80;82.40;;;;;;5072339;28;20029;-75
2022/04/28 11:00:00;;;;;;;10.63;5.47;;;15.90;81.50;;;;;;5072453;28;20477;-76
2022/04/28 11:02:26;;;;;;;11.32;5.25;;;16.10;80.40;;;;;;5072361;28;20503;-75
2022/04/28 11:05:01;;;;;;;11.45;4.95;;;16.10;77.60;;;;;;5072251;28;20021;-76
2022/04/28 11:07:29;;;;;;;12.38;5.32;;;16.00;77.00;;;;;;5072546;28;20442;-74
2022/04/28 11:10:00;;;;;;;10.77;5.25;;;15.80;75.90;;;;;;5072033;28;20035;-75
2022/04/28 11:12:34;;;;;;;11.68;4.93;;;15.80;75.90;;;;;;5072172;28;20024;-74
2022/04/28 11:15:08;;;;;;;11.27;5.72;;;15.80;76.70;;;;;;5071851;28;20041;-73
2022/04/28 11:17:36;;;;;;;14.30;5.82;;;15.90;76.40;;;;;;5071701;28;20028;-74
2022/04/28 11:20:07;;;;;;;10.80;4.85;;;15.80;76.50;;;;;;5053941;28;20052;-74
2022/04/28 11:22:33;;;;;;;13.77;5.53;;;15.90;77.20;;;;;;5071888;28;20036;-74
2022/04/28 11:25:01;;;;;;;12.32;5.57;;;16.00;76.20;;;;;;5072041;28;20388;-75
2022/04/28 11:27:27;;;;;;;11.13;5.55;;;16.10;77.00;;;;;;5071310;28;20091;-74
2022/04/28 11:29:58;;;;;;;12.00;5.50;;;16.40;76.70;;;;;;5071564;28;20475;-75
2022/04/28 11:32:24;;;;;;;10.45;5.22;;;16.60;75.60;;;;;;5072004;28;20380;-75
2022/04/28 11:34:52;;;;;;;13.30;5.40;;;16.70;75.00;;;;;;5071861;28;20017;-75
2022/04/28 11:37:24;;;;;;;14.85;5.30;;;16.90;74.50;;;;;;5071962;28;20032;-75
2022/04/28 11:39:55;;;;;;;12.73;5.10;;;17.10;73.30;;;;;;5072180;28;20052;-76
2022/04/28 11:42:22;;;;;;;11.38;5.13;;;17.10;71.30;;;;;;5072616;28;20039;-76
2022/04/28 11:44:53;;;;;;;12.93;5.47;;;17.10;71.30;;;;;;5054779;28;20056;-76
2022/04/28 11:47:20;;;;;;;9.55;5.03;;;17.20;70.20;;;;;;5073243;28;20037;-74
2022/04/28 11:49:49;;;;;;;10.25;5.13;;;17.10;69.10;;;;;;5072282;28;20107;-74
2022/04/28 11:52:23;;;;;;;14.05;5.50;;;17.10;69.50;;;;;;5071444;28;20103;-74
2022/04/28 11:55:11;;;;;;;11.80;5.78;;;17.00;68.80;;;;;;5072473;28;20082;-75
2022/04/28 11:57:39;;;;;;;10.02;5.82;;;17.00;69.90;;;;;;5070860;28;20112;-75
2022/04/28 12:00:07;;;;;;;11.50;5.95;;;17.10;70.00;;;;;;5070434;28;20040;-76
2022/04/28 12:02:34;;;;;;;9.27;5.78;;;17.10;69.50;;;;;;5072383;28;20373;-76
2022/04/28 12:05:10;;;;;;;15.98;6.43;;;17.20;69.00;;;;;;5070600;28;20078;-75
2022/04/28 12:07:36;;;;;;;9.75;5.68;;;17.30;68.90;;;;;;5058550;28;20024;-76
2022/04/28 12:15:32;;;;;;;12.45;6.55;;;17.60;67.80;;;;;;5061528;28;20055;-75
2022/04/28 12:20:59;;;;;;;14.70;7.07;;;17.80;67.40;;;;;;5057677;28;20563;-76
2022/04/28 12:23:41;;;;;;;15.45;6.40;;;17.70;67.10;;;;;;5060480;28;20029;-75
2022/04/28 12:26:08;;;;;;;13.73;6.95;;;17.70;67.20;;;;;;5057739;28;20085;-74
2022/04/28 12:28:39;;;;;;;11.95;6.78;;;17.90;67.30;;;;;;5055117;28;20040;-75
2022/04/28 12:31:08;;;;;;;14.20;7.05;;;18.00;66.50;;;;;;5065173;28;20111;-75
2022/04/28 12:33:35;;;;;;;14.38;7.55;;;18.20;66.00;;;;;;5065038;28;20037;-76
2022/04/28 12:36:02;;;;;;;13.80;6.90;;;18.30;65.60;;;;;;5064487;28;20112;-74
2022/04/28 12:38:30;;;;;;;14.77;7.30;;;18.40;65.40;;;;;;5066429;28;20162;-75
2022/04/28 12:40:56;;;;;;;15.50;7.20;;;18.40;64.10;;;;;;5072293;28;20017;-75
2022/04/28 12:43:41;;;;;;;17.25;7.30;;;18.40;63.60;;;;;;5069520;28;20075;-74
2022/04/28 12:46:06;;;;;;;17.50;6.18;;;18.50;62.60;;;;;;5055464;28;20027;-74
2022/04/28 12:48:33;;;;;;;13.23;7.03;;;18.40;62.60;;;;;;5064678;28;20029;-76
2022/04/28 12:51:19;;;;;;;12.90;7.32;;;18.50;62.70;;;;;;5047138;28;20029;-76
2022/04/28 12:53:53;;;;;;;11.95;7.18;;;18.60;61.50;;;;;;5071893;28;20453;-75
2022/04/28 12:56:30;;;;;;;12.00;6.90;;;18.50;61.90;;;;;;5071637;28;20023;-76
2022/04/28 12:59:03;;;;;;;12.85;6.80;;;18.50;63.00;;;;;;5051415;28;21387;-75
2022/04/28 13:01:30;;;;;;;15.93;7.57;;;18.60;62.10;;;;;;5064302;28;20109;-74
2022/04/28 13:04:07;;;;;;;13.95;6.88;;;18.70;61.70;;;;;;5054030;28;20476;-74
2022/04/28 13:06:35;;;;;;;15.80;7.50;;;18.80;61.40;;;;;;5060915;28;20111;-74
2022/04/28 13:09:03;;;;;;;16.10;7.90;;;18.70;61.30;;;;;;5061709;28;20496;-75
2022/04/28 13:11:34;;;;;;;11.25;7.15;;;18.60;60.70;;;;;;5071383;28;20036;-75
2022/04/28 13:14:01;;;;;;;13.55;6.70;;;18.50;61.30;;;;;;5050296;28;20017;-75
2022/04/28 13:16:28;;;;;;;14.23;7.65;;;18.50;62.00;;;;;;5058329;28;20021;-74
2022/04/28 13:18:54;;;;;;;13.68;6.55;;;18.50;61.90;;;;;;5064908;28;20040;-75
2022/04/28 13:21:20;;;;;;;14.02;6.82;;;18.50;61.80;;;;;;5056715;28;20107;-76